createdAt,value
2023-05-08T00:01:32.079Z,92.30
2023-05-08T00:03:55.570Z,92.30
2023-05-08T00:06:18.973Z,92.30
2023-05-08T00:08:43.827Z,92.40
2023-05-08T00:11:07.181Z,92.30
2023-05-08T00:13:30.646Z,92.20
2023-05-08T00:15:53.924Z,92.10
2023-05-08T00:18:17.444Z,92.20
2023-05-08T00:20:41.757Z,92.20
2023-05-08T00:23:05.190Z,92.20
2023-05-08T00:25:31.285Z,92.30
2023-05-08T00:27:54.669Z,92.40
2023-05-08T00:30:18.563Z,92.50
2023-05-08T00:32:41.912Z,92.50
2023-05-08T00:35:05.949Z,92.50
2023-05-08T00:37:29.210Z,92.50
2023-05-08T00:39:52.512Z,92.50
2023-05-08T00:42:17.187Z,92.50
2023-05-08T00:44:41.224Z,92.60
2023-05-08T00:47:04.660Z,92.50
2023-05-08T00:49:28.364Z,92.90
2023-05-08T00:51:55.683Z,93.10
2023-05-08T00:54:19.549Z,93.30
2023-05-08T00:56:42.938Z,93.40
2023-05-08T00:59:13.303Z,93.40
2023-05-08T01:01:38.347Z,93.50
2023-05-08T01:04:01.753Z,93.40
2023-05-08T01:06:25.175Z,93.50
2023-05-08T01:08:48.396Z,93.50
2023-05-08T01:11:18.690Z,93.50
2023-05-08T01:13:53.912Z,93.40
2023-05-08T01:16:25.435Z,93.50
2023-05-08T01:19:02.507Z,93.50
2023-05-08T01:21:33.702Z,93.50
2023-05-08T01:24:43.901Z,93.50
2023-05-08T01:27:37.646Z,93.40
2023-05-08T01:30:41.068Z,93.30
2023-05-08T01:33:14.486Z,93.30
2023-05-08T01:35:45.119Z,93.30
2023-05-08T01:38:14.187Z,93.20
2023-05-08T01:40:52.618Z,93.30
2023-05-08T01:43:26.378Z,93.40
2023-05-08T01:45:52.773Z,93.50
2023-05-08T01:48:24.086Z,93.60
2023-05-08T01:50:50.581Z,93.70
2023-05-08T01:53:22.927Z,93.80
2023-05-08T01:55:49.920Z,93.70
2023-05-08T01:58:14.787Z,93.60
2023-05-08T02:00:41.059Z,93.70
2023-05-08T02:03:08.139Z,93.60
2023-05-08T02:05:34.036Z,93.60
2023-05-08T02:07:58.285Z,93.40
2023-05-08T02:10:24.888Z,93.40
2023-05-08T02:12:49.966Z,93.40
2023-05-08T02:15:16.431Z,93.50
2023-05-08T02:17:41.719Z,93.50
2023-05-08T02:20:07.714Z,93.40
2023-05-08T02:22:34.161Z,93.40
2023-05-08T02:24:58.965Z,93.30
2023-05-08T02:27:24.174Z,93.20
2023-05-08T02:29:47.423Z,93.20
2023-05-08T02:32:12.218Z,93.20
2023-05-08T02:34:39.469Z,93.20
2023-05-08T02:37:07.355Z,93.20
2023-05-08T02:39:32.807Z,93.10
2023-05-08T02:41:56.414Z,93.30
2023-05-08T02:44:21.360Z,93.30
2023-05-08T02:46:50.865Z,93.30
2023-05-08T02:49:28.974Z,93.30
2023-05-08T02:51:58.835Z,93.30
2023-05-08T02:54:36.590Z,93.20
2023-05-08T02:57:04.947Z,93.20
2023-05-08T02:59:32.890Z,93.20
2023-05-08T03:02:08.031Z,93.10
2023-05-08T03:04:37.767Z,93.10
2023-05-08T03:07:01.991Z,93.00
2023-05-08T03:09:40.987Z,93.10
2023-05-08T03:12:19.515Z,93.10
2023-05-08T03:14:56.659Z,93.20
2023-05-08T03:17:22.454Z,93.30
2023-05-08T03:19:51.663Z,93.30
2023-05-08T03:22:17.677Z,93.30
2023-05-08T03:24:44.230Z,93.30
2023-05-08T03:27:09.948Z,93.20
2023-05-08T03:29:34.661Z,93.20
2023-05-08T03:31:59.944Z,93.40
2023-05-08T03:34:24.640Z,93.50
2023-05-08T03:36:49.861Z,93.50
2023-05-08T03:39:13.612Z,93.60
2023-05-08T03:41:37.307Z,93.70
2023-05-08T03:44:04.384Z,93.80
2023-05-08T03:46:27.896Z,93.70
2023-05-08T03:48:54.431Z,93.70
2023-05-08T03:51:18.484Z,93.70
2023-05-08T03:53:41.943Z,93.60
2023-05-08T03:56:06.026Z,93.50
2023-05-08T03:58:38.439Z,93.50
2023-05-08T04:01:09.809Z,93.40
2023-05-08T04:03:52.868Z,93.30
2023-05-08T04:06:28.786Z,93.30
2023-05-08T04:09:04.497Z,93.40
2023-05-08T04:11:35.473Z,93.40
2023-05-08T04:14:06.398Z,93.50
2023-05-08T04:16:38.001Z,93.60
2023-05-08T04:19:04.268Z,93.70
2023-05-08T04:21:34.540Z,93.80
2023-05-08T04:23:59.684Z,93.80
2023-05-08T04:26:24.204Z,94.00
2023-05-08T04:28:49.402Z,94.10
2023-05-08T04:31:15.136Z,94.10
2023-05-08T04:33:40.233Z,94.10
2023-05-08T04:36:03.898Z,94.10
2023-05-08T04:38:28.110Z,94.10
2023-05-08T04:40:51.509Z,94.00
2023-05-08T04:43:14.857Z,94.10
2023-05-08T04:45:38.299Z,94.10
2023-05-08T04:48:02.048Z,94.10
2023-05-08T04:50:27.209Z,94.10
2023-05-08T04:52:50.535Z,94.10
2023-05-08T04:55:14.063Z,94.00
2023-05-08T04:57:37.649Z,94.00
2023-05-08T05:00:00.904Z,93.90
2023-05-08T05:02:27.510Z,93.80
2023-05-08T05:04:51.241Z,93.80
2023-05-08T05:07:15.964Z,93.70
2023-05-08T05:09:39.932Z,93.70
2023-05-08T05:12:04.536Z,93.60
2023-05-08T05:14:27.973Z,93.60
2023-05-08T05:16:52.714Z,93.50
2023-05-08T05:19:16.478Z,93.50
2023-05-08T05:21:39.866Z,93.40
2023-05-08T05:24:05.233Z,93.40
2023-05-08T05:26:28.867Z,93.50
2023-05-08T05:28:52.221Z,93.50
2023-05-08T05:31:15.696Z,93.50
2023-05-08T05:33:39.291Z,93.60
2023-05-08T05:36:03.070Z,93.50
2023-05-08T05:38:26.798Z,93.50
2023-05-08T05:40:51.502Z,93.40
2023-05-08T05:43:14.755Z,93.40
2023-05-08T05:45:39.192Z,93.30
2023-05-08T05:48:02.981Z,93.30
2023-05-08T05:50:27.615Z,93.20
2023-05-08T05:52:52.764Z,93.20
2023-05-08T05:55:17.197Z,93.30
2023-05-08T05:57:44.161Z,93.20
2023-05-08T06:00:09.324Z,93.30
2023-05-08T06:02:42.698Z,93.30
2023-05-08T06:05:10.861Z,93.30
2023-05-08T06:07:34.626Z,93.40
2023-05-08T06:10:00.149Z,93.20
2023-05-08T06:12:23.609Z,93.20
2023-05-08T06:14:48.314Z,93.50
2023-05-08T06:17:11.751Z,92.70
2023-05-08T06:19:35.128Z,92.50
2023-05-08T06:21:58.481Z,92.00
2023-05-08T06:24:21.847Z,91.10
2023-05-08T06:26:45.381Z,90.80
2023-05-08T06:29:08.734Z,90.60
2023-05-08T06:31:33.780Z,90.50
2023-05-08T06:33:57.545Z,90.20
2023-05-08T06:36:20.859Z,90.00
2023-05-08T06:38:44.100Z,88.70
2023-05-08T06:41:07.495Z,88.60
2023-05-08T06:43:31.082Z,88.80
2023-05-08T06:45:55.204Z,89.20
2023-05-08T06:48:20.148Z,89.50
2023-05-08T06:50:43.477Z,90.20
2023-05-08T06:53:07.110Z,89.60
2023-05-08T06:55:30.502Z,88.50
2023-05-08T06:57:53.773Z,88.00
2023-05-08T07:00:17.554Z,87.80
2023-05-08T07:02:41.059Z,87.10
2023-05-08T07:05:07.057Z,87.60
2023-05-08T07:07:30.448Z,88.30
2023-05-08T07:09:53.701Z,87.90
2023-05-08T07:12:16.925Z,87.90
2023-05-08T07:14:40.203Z,88.10
2023-05-08T07:17:07.422Z,88.40
2023-05-08T07:19:31.564Z,87.50
2023-05-08T07:21:56.176Z,87.80
2023-05-08T07:24:19.530Z,87.00
2023-05-08T07:26:42.863Z,87.40
2023-05-08T07:29:06.138Z,87.20
2023-05-08T07:31:29.544Z,86.60
2023-05-08T07:33:52.904Z,87.90
2023-05-08T07:36:16.173Z,87.50
2023-05-08T07:38:40.844Z,87.00
2023-05-08T07:41:05.272Z,88.40
2023-05-08T07:43:28.627Z,87.90
2023-05-08T07:45:52.004Z,87.80
2023-05-08T07:48:15.429Z,88.50
2023-05-08T07:50:38.785Z,87.80
2023-05-08T07:53:02.152Z,87.00
2023-05-08T07:55:26.995Z,85.30
2023-05-08T07:57:50.260Z,84.30
2023-05-08T08:00:16.249Z,84.10
2023-05-08T08:02:40.237Z,84.90
2023-05-08T08:05:03.734Z,86.10
2023-05-08T08:07:27.281Z,85.90
2023-05-08T08:09:50.876Z,85.90
2023-05-08T08:12:15.652Z,86.00
2023-05-08T08:14:38.914Z,86.40
2023-05-08T08:17:02.477Z,85.30
2023-05-08T08:19:26.372Z,85.30
2023-05-08T08:21:49.734Z,84.40
2023-05-08T08:24:13.586Z,84.20
2023-05-08T08:26:37.020Z,83.40
2023-05-08T08:29:02.064Z,83.00
2023-05-08T08:31:25.452Z,82.50
2023-05-08T08:33:48.737Z,83.20
2023-05-08T08:36:15.093Z,83.70
2023-05-08T08:38:38.309Z,82.90
2023-05-08T08:41:01.593Z,82.70
2023-05-08T08:43:24.995Z,82.20
2023-05-08T08:45:49.649Z,81.00
2023-05-08T08:48:14.269Z,80.50
2023-05-08T08:50:43.412Z,81.40
2023-05-08T08:53:14.860Z,81.40
2023-05-08T08:55:41.844Z,74.90
2023-05-08T08:58:20.861Z,77.00
2023-05-08T09:00:44.687Z,79.00
2023-05-08T09:03:09.611Z,78.50
2023-05-08T09:05:33.283Z,79.20
2023-05-08T09:07:56.976Z,80.60
2023-05-08T09:10:20.490Z,79.70
2023-05-08T09:12:45.107Z,80.00
2023-05-08T09:15:09.036Z,80.10
2023-05-08T09:17:32.446Z,77.30
2023-05-08T09:19:57.404Z,77.80
2023-05-08T09:22:22.951Z,80.10
2023-05-08T09:24:57.935Z,80.20
2023-05-08T09:27:23.552Z,75.60
2023-05-08T09:30:01.806Z,75.70
2023-05-08T09:32:25.480Z,76.40
2023-05-08T09:34:54.169Z,76.60
2023-05-08T09:37:18.937Z,75.70
2023-05-08T09:39:43.573Z,75.30
2023-05-08T09:42:07.067Z,77.30
2023-05-08T09:44:30.908Z,77.80
2023-05-08T09:47:10.968Z,75.80
2023-05-08T09:49:34.302Z,76.80
2023-05-08T09:51:57.582Z,77.70
2023-05-08T09:54:22.340Z,77.10
2023-05-08T09:56:45.835Z,77.70
2023-05-08T09:59:26.241Z,73.10
2023-05-08T10:01:49.727Z,72.70
2023-05-08T10:04:13.024Z,70.40
2023-05-08T10:06:36.597Z,69.90
2023-05-08T10:09:11.728Z,72.80
2023-05-08T10:11:36.992Z,75.20
2023-05-08T10:14:01.177Z,73.90
2023-05-08T10:16:25.013Z,72.00
2023-05-08T10:18:50.266Z,72.50
2023-05-08T10:21:14.707Z,72.60
2023-05-08T10:23:40.203Z,73.10
2023-05-08T10:26:11.143Z,74.60
2023-05-08T10:28:44.752Z,73.80
2023-05-08T10:31:10.801Z,75.00
2023-05-08T10:33:36.516Z,73.80
2023-05-08T10:36:01.069Z,72.20
2023-05-08T10:38:25.562Z,72.20
2023-05-08T10:40:52.903Z,71.70
2023-05-08T10:43:17.319Z,72.00
2023-05-08T10:45:42.600Z,72.40
2023-05-08T10:48:21.342Z,74.10
2023-05-08T10:50:59.018Z,76.00
2023-05-08T10:53:36.003Z,71.10
2023-05-08T10:55:59.563Z,72.10
2023-05-08T10:58:33.720Z,71.90
2023-05-08T11:01:18.269Z,71.30
2023-05-08T11:03:44.501Z,72.60
2023-05-08T11:06:08.486Z,73.30
2023-05-08T11:08:33.168Z,71.60
2023-05-08T11:11:07.048Z,75.40
2023-05-08T11:13:34.847Z,72.90
2023-05-08T11:15:58.222Z,72.00
2023-05-08T11:18:26.338Z,71.00
2023-05-08T11:20:58.653Z,70.70
2023-05-08T11:23:25.806Z,71.50
2023-05-08T11:25:49.027Z,70.10
2023-05-08T11:28:12.592Z,69.10
2023-05-08T11:30:39.095Z,69.20
2023-05-08T11:33:32.911Z,68.00
2023-05-08T11:35:57.901Z,69.40
2023-05-08T11:38:27.757Z,70.20
2023-05-08T11:40:59.855Z,69.30
2023-05-08T11:43:55.537Z,68.80
2023-05-08T11:46:21.634Z,70.10
2023-05-08T11:48:46.399Z,70.30
2023-05-08T11:51:10.116Z,69.20
2023-05-08T11:53:34.251Z,72.30
2023-05-08T11:55:57.668Z,72.20
2023-05-08T11:58:21.718Z,69.90
2023-05-08T12:00:46.085Z,69.10
2023-05-08T12:03:09.624Z,68.30
2023-05-08T12:05:34.347Z,69.00
2023-05-08T12:07:57.635Z,69.90
2023-05-08T12:10:20.881Z,71.90
2023-05-08T12:12:46.360Z,68.80
2023-05-08T12:15:11.919Z,68.90
2023-05-08T12:17:35.695Z,70.20
2023-05-08T12:20:10.962Z,69.50
2023-05-08T12:22:36.187Z,68.50
2023-05-08T12:24:59.513Z,67.00
2023-05-08T12:27:22.972Z,68.30
2023-05-08T12:29:46.752Z,67.90
2023-05-08T12:32:10.622Z,67.70
2023-05-08T12:34:33.973Z,65.90
2023-05-08T12:37:04.337Z,67.30
2023-05-08T12:39:29.071Z,67.10
2023-05-08T12:41:54.057Z,66.00
2023-05-08T12:44:24.178Z,66.20
2023-05-08T12:46:50.895Z,66.80
2023-05-08T12:49:14.212Z,66.60
2023-05-08T12:51:37.539Z,67.60
2023-05-08T12:54:00.863Z,69.40
2023-05-08T12:56:25.508Z,66.10
2023-05-08T12:58:48.813Z,68.00
2023-05-08T13:01:14.155Z,64.50
2023-05-08T13:03:38.486Z,64.40
2023-05-08T13:06:01.917Z,61.60
2023-05-08T13:08:32.094Z,64.70
2023-05-08T13:10:57.105Z,61.60
2023-05-08T13:13:24.008Z,60.80
2023-05-08T13:15:48.271Z,63.10
2023-05-08T13:18:11.789Z,62.60
2023-05-08T13:20:35.306Z,62.00
2023-05-08T13:22:58.580Z,62.30
2023-05-08T13:25:21.813Z,62.30
2023-05-08T13:27:45.077Z,61.20
2023-05-08T13:30:11.542Z,61.10
2023-05-08T13:32:34.950Z,61.70
2023-05-08T13:35:00.832Z,63.20
2023-05-08T13:37:24.490Z,63.30
2023-05-08T13:39:47.794Z,62.00
2023-05-08T13:42:11.178Z,60.70
2023-05-08T13:44:34.553Z,61.50
2023-05-08T13:46:59.402Z,62.50
2023-05-08T13:49:24.239Z,64.60
2023-05-08T13:51:51.917Z,62.00
2023-05-08T13:54:18.337Z,63.30
2023-05-08T13:56:41.698Z,62.90
2023-05-08T13:59:04.949Z,65.60
2023-05-08T14:01:28.506Z,62.90
2023-05-08T14:03:53.760Z,62.80
2023-05-08T14:06:17.210Z,62.60
2023-05-08T14:08:46.444Z,61.00
2023-05-08T14:11:12.398Z,63.40
2023-05-08T14:13:35.631Z,64.60
2023-05-08T14:15:58.952Z,63.40
2023-05-08T14:18:22.276Z,62.30
2023-05-08T14:20:56.419Z,61.80
2023-05-08T14:23:20.356Z,62.10
2023-05-08T14:25:43.653Z,62.30
2023-05-08T14:28:07.004Z,63.30
2023-05-08T14:30:30.326Z,63.70
2023-05-08T14:32:54.039Z,62.90
2023-05-08T14:35:17.622Z,63.60
2023-05-08T14:37:42.333Z,64.10
2023-05-08T14:40:07.006Z,62.00
2023-05-08T14:42:30.295Z,61.30
2023-05-08T14:44:53.738Z,62.80
2023-05-08T14:47:17.439Z,62.60
2023-05-08T14:49:41.120Z,60.40
2023-05-08T14:52:04.539Z,64.00
2023-05-08T14:54:29.519Z,61.70
2023-05-08T14:56:52.885Z,65.40
2023-05-08T14:59:16.200Z,64.40
2023-05-08T15:01:42.879Z,65.00
2023-05-08T15:04:06.635Z,63.80
2023-05-08T15:06:31.060Z,66.40
2023-05-08T15:08:54.295Z,67.40
2023-05-08T15:11:19.144Z,65.40
2023-05-08T15:13:42.285Z,64.10
2023-05-08T15:16:06.509Z,66.00
2023-05-08T15:18:29.858Z,64.70
2023-05-08T15:20:53.047Z,66.30
2023-05-08T15:23:16.373Z,65.80
2023-05-08T15:25:40.052Z,65.30
2023-05-08T15:28:04.863Z,66.60
2023-05-08T15:30:28.152Z,66.70
2023-05-08T15:32:52.729Z,66.40
2023-05-08T15:35:16.472Z,67.40
2023-05-08T15:37:39.837Z,66.80
2023-05-08T15:40:03.207Z,67.30
2023-05-08T15:42:26.506Z,67.90
2023-05-08T15:44:54.953Z,67.70
2023-05-08T15:47:19.497Z,68.90
2023-05-08T15:49:42.847Z,67.60
2023-05-08T15:52:06.285Z,68.90
2023-05-08T15:54:29.693Z,68.60
2023-05-08T15:56:53.347Z,68.80
2023-05-08T15:59:16.770Z,69.80
2023-05-08T16:01:41.862Z,68.90
2023-05-08T16:04:05.172Z,68.70
2023-05-08T16:06:28.521Z,69.30
2023-05-08T16:08:52.849Z,69.10
2023-05-08T16:11:16.163Z,68.80
2023-05-08T16:13:39.436Z,69.40
2023-05-08T16:16:06.426Z,69.70
2023-05-08T16:18:31.207Z,68.80
2023-05-08T16:20:54.495Z,68.00
2023-05-08T16:23:17.703Z,69.90
2023-05-08T16:25:41.046Z,69.80
2023-05-08T16:28:04.555Z,69.90
2023-05-08T16:30:27.814Z,69.30
2023-05-08T16:32:51.180Z,69.80
2023-05-08T16:35:16.259Z,71.60
2023-05-08T16:37:39.737Z,71.00
2023-05-08T16:40:03.270Z,70.20
2023-05-08T16:42:26.614Z,71.70
2023-05-08T16:44:49.801Z,71.00
2023-05-08T16:47:13.180Z,70.90
2023-05-08T16:49:37.476Z,70.50
2023-05-08T16:52:02.129Z,70.70
2023-05-08T16:54:25.470Z,71.00
2023-05-08T16:56:48.755Z,71.70
2023-05-08T16:59:12.100Z,71.30
2023-05-08T17:01:35.624Z,71.80
2023-05-08T17:03:58.917Z,71.70
2023-05-08T17:06:22.264Z,71.80
2023-05-08T17:08:46.903Z,72.20
2023-05-08T17:11:10.133Z,71.90
2023-05-08T17:13:33.446Z,72.80
2023-05-08T17:15:56.741Z,72.70
2023-05-08T17:18:20.828Z,73.60
2023-05-08T17:20:44.130Z,72.80
2023-05-08T17:23:07.665Z,73.30
2023-05-08T17:25:32.288Z,73.00
2023-05-08T17:27:55.987Z,73.00
2023-05-08T17:30:19.792Z,73.00
2023-05-08T17:32:43.161Z,73.70
2023-05-08T17:35:07.900Z,74.20
2023-05-08T17:37:31.212Z,74.20
2023-05-08T17:39:54.504Z,74.00
2023-05-08T17:42:19.172Z,74.80
2023-05-08T17:44:42.396Z,75.00
2023-05-08T17:47:06.011Z,75.50
2023-05-08T17:49:29.400Z,75.50
2023-05-08T17:51:52.650Z,75.00
2023-05-08T17:54:15.989Z,75.80
2023-05-08T17:56:39.228Z,75.30
2023-05-08T17:59:03.858Z,75.30
2023-05-08T18:01:27.583Z,75.60
2023-05-08T18:03:50.990Z,75.50
2023-05-08T18:06:16.357Z,75.40
2023-05-08T18:08:41.442Z,75.80
2023-05-08T18:11:05.352Z,75.80
2023-05-08T18:13:28.643Z,76.30
2023-05-08T18:15:53.258Z,75.80
2023-05-08T18:18:16.558Z,75.80
2023-05-08T18:20:39.890Z,76.10
2023-05-08T18:23:03.079Z,76.50
2023-05-08T18:25:26.433Z,76.90
2023-05-08T18:27:50.452Z,76.80
2023-05-08T18:30:14.811Z,76.40
2023-05-08T18:32:39.843Z,76.90
2023-05-08T18:35:03.174Z,77.00
2023-05-08T18:37:26.585Z,77.40
2023-05-08T18:39:50.057Z,77.00
2023-05-08T18:42:13.317Z,77.40
2023-05-08T18:44:36.499Z,77.40
2023-05-08T18:46:59.781Z,77.50
2023-05-08T18:49:24.399Z,77.60
2023-05-08T18:51:47.626Z,77.90
2023-05-08T18:54:10.848Z,78.50
2023-05-08T18:56:34.378Z,78.60
2023-05-08T18:58:57.603Z,78.90
2023-05-08T19:01:21.552Z,78.80
2023-05-08T19:03:45.077Z,79.20
2023-05-08T19:06:09.736Z,79.00
2023-05-08T19:08:32.941Z,79.20
2023-05-08T19:10:56.363Z,79.60
2023-05-08T19:13:19.782Z,79.60
2023-05-08T19:15:43.256Z,79.50
2023-05-08T19:18:06.861Z,79.70
2023-05-08T19:20:30.326Z,79.50
2023-05-08T19:22:55.688Z,79.80
2023-05-08T19:25:18.975Z,79.80
2023-05-08T19:27:42.244Z,79.80
2023-05-08T19:30:07.509Z,80.20
2023-05-08T19:32:30.717Z,80.10
2023-05-08T19:34:57.286Z,80.30
2023-05-08T19:37:20.652Z,80.50
2023-05-08T19:39:45.417Z,80.30
2023-05-08T19:42:10.517Z,80.50
2023-05-08T19:44:33.848Z,80.50
2023-05-08T19:46:57.097Z,81.00
2023-05-08T19:49:20.348Z,80.70
2023-05-08T19:51:43.713Z,80.80
2023-05-08T19:54:07.321Z,81.00
2023-05-08T19:56:32.010Z,80.80
2023-05-08T19:58:55.368Z,80.70
2023-05-08T20:01:18.641Z,80.70
2023-05-08T20:03:42.164Z,80.70
2023-05-08T20:06:05.816Z,81.10
2023-05-08T20:08:29.164Z,81.10
2023-05-08T20:10:52.438Z,81.20
2023-05-08T20:13:17.666Z,81.20
2023-05-08T20:15:41.040Z,81.30
2023-05-08T20:18:04.511Z,81.50
2023-05-08T20:20:29.648Z,81.80
2023-05-08T20:22:52.937Z,81.90
2023-05-08T20:25:16.351Z,82.00
2023-05-08T20:27:39.619Z,82.20
2023-05-08T20:30:04.919Z,82.50
2023-05-08T20:32:28.178Z,82.40
2023-05-08T20:34:51.518Z,82.50
2023-05-08T20:37:15.877Z,82.70
2023-05-08T20:39:39.331Z,82.70
2023-05-08T20:42:02.606Z,82.70
2023-05-08T20:44:26.631Z,82.90
2023-05-08T20:46:51.349Z,83.00
2023-05-08T20:49:17.079Z,82.90
2023-05-08T20:51:40.388Z,82.90
2023-05-08T20:54:03.826Z,83.50
2023-05-08T20:56:27.136Z,83.50
2023-05-08T20:58:50.427Z,83.80
2023-05-08T21:01:13.717Z,83.60
2023-05-08T21:03:38.747Z,83.50
2023-05-08T21:06:02.083Z,83.50
2023-05-08T21:08:26.454Z,83.50
2023-05-08T21:10:49.682Z,83.90
2023-05-08T21:13:13.036Z,84.30
2023-05-08T21:15:36.565Z,84.30
2023-05-08T21:17:59.870Z,84.50
2023-05-08T21:20:24.613Z,84.40
2023-05-08T21:22:48.084Z,84.50
2023-05-08T21:25:12.566Z,84.40
2023-05-08T21:27:37.874Z,84.20
2023-05-08T21:30:01.089Z,84.10
2023-05-08T21:32:24.415Z,84.30
2023-05-08T21:34:48.118Z,84.50
2023-05-08T21:37:13.045Z,84.70
2023-05-08T21:39:36.668Z,85.20
2023-05-08T21:41:59.909Z,85.40
2023-05-08T21:44:23.061Z,85.50
2023-05-08T21:46:46.365Z,85.40
2023-05-08T21:49:10.103Z,85.70
2023-05-08T21:51:33.474Z,85.50
2023-05-08T21:53:58.052Z,85.70
2023-05-08T21:56:21.530Z,85.60
2023-05-08T21:58:45.143Z,85.30
2023-05-08T22:01:08.368Z,85.30
2023-05-08T22:03:31.930Z,85.30
2023-05-08T22:05:55.448Z,85.20
2023-05-08T22:08:18.815Z,85.30
2023-05-08T22:10:44.104Z,85.40
2023-05-08T22:13:07.724Z,85.50
2023-05-08T22:15:31.283Z,85.80
2023-05-08T22:17:55.843Z,86.00
2023-05-08T22:20:19.419Z,85.70
2023-05-08T22:22:42.868Z,85.70
2023-05-08T22:25:07.317Z,85.60
2023-05-08T22:27:31.995Z,85.70
2023-05-08T22:29:55.246Z,85.90
2023-05-08T22:32:19.022Z,86.00
2023-05-08T22:34:42.337Z,86.10
2023-05-08T22:37:05.706Z,86.10
2023-05-08T22:39:29.002Z,86.10
2023-05-08T22:41:52.429Z,86.60
2023-05-08T22:44:17.103Z,86.50
2023-05-08T22:46:40.461Z,86.50
2023-05-08T22:49:03.812Z,86.50
2023-05-08T22:51:27.773Z,86.40
2023-05-08T22:53:51.000Z,86.30
2023-05-08T22:56:14.315Z,86.40
2023-05-08T22:58:37.656Z,86.50
2023-05-08T23:01:02.335Z,86.60
2023-05-08T23:03:25.625Z,86.80
2023-05-08T23:05:49.412Z,86.80
2023-05-08T23:08:12.770Z,86.70
2023-05-08T23:10:36.022Z,86.70
2023-05-08T23:12:59.307Z,86.80
2023-05-08T23:15:22.579Z,86.80
2023-05-08T23:17:47.218Z,86.80
2023-05-08T23:20:11.806Z,87.00
2023-05-08T23:22:35.046Z,87.10
2023-05-08T23:24:58.360Z,86.90
2023-05-08T23:27:21.653Z,87.10
2023-05-08T23:29:44.950Z,87.20
2023-05-08T23:32:08.492Z,87.30
2023-05-08T23:34:33.139Z,87.30
2023-05-08T23:36:56.428Z,87.60
2023-05-08T23:39:19.648Z,87.40
2023-05-08T23:41:42.959Z,87.30
2023-05-08T23:44:06.618Z,87.50
2023-05-08T23:46:29.897Z,87.30
2023-05-08T23:48:53.210Z,87.20
2023-05-08T23:51:17.832Z,87.40
2023-05-08T23:53:42.184Z,87.70
2023-05-08T23:56:06.301Z,87.50
2023-05-08T23:58:29.598Z,87.40
